createdAt,value
2019-04-23T00:00:38.030Z,30.71
2019-04-23T00:02:42.194Z,30.79
2019-04-23T00:04:29.012Z,30.73
2019-04-23T00:06:45.565Z,31.01
2019-04-23T00:08:59.166Z,31.07
2019-04-23T00:10:43.012Z,31.21
2019-04-23T00:12:47.828Z,31.40
2019-04-23T00:16:59.607Z,31.67
2019-04-23T00:18:56.057Z,31.89
2019-04-23T00:23:16.352Z,32.10
2019-04-23T00:27:42.851Z,32.62
2019-04-23T00:29:56.173Z,32.65
2019-04-23T00:31:56.169Z,32.75
2019-04-23T00:33:57.537Z,33.00
2019-04-23T00:35:56.534Z,33.26
2019-04-23T00:38:04.679Z,33.40
2019-04-23T00:40:03.086Z,33.57
2019-04-23T00:42:15.212Z,33.71
2019-04-23T00:44:14.949Z,33.82
2019-04-23T00:46:22.277Z,33.94
2019-04-23T00:52:33.799Z,34.35
2019-04-23T00:54:39.702Z,34.61
2019-04-23T01:02:57.314Z,35.27
2019-04-23T01:04:58.571Z,35.47
2019-04-23T01:07:01.808Z,35.72
2019-04-23T01:09:03.710Z,35.86
2019-04-23T01:11:09.349Z,35.95
2019-04-23T01:13:24.226Z,36.09
2019-04-23T01:15:29.964Z,36.37
2019-04-23T01:17:35.031Z,36.60
2019-04-23T01:19:37.291Z,36.70
2019-04-23T01:21:47.461Z,36.79
2019-04-23T01:24:14.135Z,37.05
2019-04-23T01:26:29.623Z,37.34
2019-04-23T01:29:02.828Z,37.57
2019-04-23T01:30:49.153Z,37.70
2019-04-23T01:32:51.808Z,37.98
2019-04-23T01:34:59.444Z,38.13
2019-04-23T01:36:55.945Z,38.38
2019-04-23T01:39:06.335Z,38.56
2019-04-23T01:41:09.762Z,38.78
2019-04-23T01:43:07.727Z,39.04
2019-04-23T01:45:20.346Z,39.23
2019-04-23T01:47:19.853Z,39.39
2019-04-23T01:49:31.202Z,39.55
2019-04-23T01:51:38.078Z,39.81
2019-04-23T01:53:48.160Z,40.07
2019-04-23T01:55:33.053Z,40.15
2019-04-23T01:57:47.127Z,40.38
2019-04-23T01:59:48.741Z,40.49
2019-04-23T02:03:54.757Z,40.63
2019-04-23T02:08:03.562Z,41.07
2019-04-23T02:12:15.753Z,41.32
2019-04-23T02:14:16.480Z,41.64
2019-04-23T02:16:19.399Z,41.79
2019-04-23T02:18:18.257Z,41.65
2019-04-23T02:22:56.238Z,41.95
2019-04-23T02:24:52.701Z,42.35
2019-04-23T02:26:43.555Z,42.71
2019-04-23T02:28:54.585Z,42.88
2019-04-23T02:35:17.287Z,43.23
2019-04-23T02:39:13.107Z,43.33
2019-04-23T02:43:20.561Z,43.43
2019-04-23T02:47:42.555Z,43.67
2019-04-23T02:49:45.901Z,43.59
2019-04-23T02:51:48.915Z,43.82
2019-04-23T02:54:00.578Z,43.74
2019-04-23T02:58:00.786Z,43.87
2019-04-23T03:02:15.609Z,43.96
2019-04-23T03:04:26.806Z,44.00
2019-04-23T03:06:16.387Z,44.01
2019-04-23T03:08:20.297Z,44.05
2019-04-23T03:12:43.751Z,44.24
2019-04-23T03:14:27.128Z,44.33
2019-04-23T03:16:56.586Z,44.51
2019-04-23T03:21:27.009Z,44.51
2019-04-23T03:23:34.918Z,44.52
2019-04-23T03:25:45.462Z,44.74
2019-04-23T03:27:50.040Z,44.66
2019-04-23T03:38:20.439Z,45.04
2019-04-23T03:42:17.722Z,45.41
2019-04-23T03:44:29.890Z,45.77
2019-04-23T03:46:34.061Z,45.68
2019-04-23T03:50:35.389Z,46.03
2019-04-23T03:52:38.547Z,45.90
2019-04-23T03:58:59.679Z,46.11
2019-04-23T04:00:58.879Z,46.18
2019-04-23T04:03:11.230Z,46.37
2019-04-23T04:05:03.691Z,46.53
2019-04-23T04:11:21.675Z,46.41
2019-04-23T04:13:31.591Z,46.38
2019-04-23T04:15:47.104Z,46.34
2019-04-23T04:19:47.042Z,46.11
2019-04-23T04:21:39.903Z,45.98
2019-04-23T04:23:51.773Z,45.83
2019-04-23T04:25:46.700Z,45.56
2019-04-23T04:28:02.874Z,45.71
2019-04-23T04:30:05.719Z,45.69
2019-04-23T04:32:00.272Z,45.71
2019-04-23T04:36:18.106Z,45.21
2019-04-23T04:38:32.384Z,45.26
2019-04-23T04:42:18.577Z,45.10
2019-04-23T04:46:44.208Z,44.97
2019-04-23T04:48:44.347Z,44.90
2019-04-23T04:50:46.945Z,44.94
2019-04-23T04:54:37.011Z,44.80
2019-04-23T04:56:57.554Z,44.57
2019-04-23T04:58:53.050Z,44.67
2019-04-23T05:01:08.571Z,44.49
2019-04-23T05:07:10.846Z,44.55
2019-04-23T05:09:27.245Z,44.59
2019-04-23T05:11:36.295Z,44.57
2019-04-23T05:15:25.539Z,44.54
2019-04-23T05:18:15.512Z,44.33
2019-04-23T05:19:57.216Z,44.64
2019-04-23T05:21:53.974Z,44.77
2019-04-23T05:25:51.506Z,44.07
2019-04-23T05:30:09.459Z,43.77
2019-04-23T05:32:04.445Z,43.50
2019-04-23T05:40:00.417Z,43.85
2019-04-23T05:41:53.724Z,43.97
2019-04-23T05:44:05.118Z,43.69
2019-04-23T05:46:04.401Z,43.57
2019-04-23T05:50:21.549Z,43.18
2019-04-23T05:54:18.682Z,42.86
2019-04-23T05:56:21.400Z,42.88
2019-04-23T05:58:32.981Z,43.31
2019-04-23T06:00:34.774Z,43.52
2019-04-23T06:02:42.837Z,43.37
2019-04-23T06:04:37.009Z,43.52
2019-04-23T06:08:47.575Z,42.38
2019-04-23T06:10:55.530Z,41.92
2019-04-23T06:13:02.971Z,41.54
2019-04-23T06:14:57.407Z,41.53
2019-04-23T06:17:03.170Z,41.05
2019-04-23T06:23:24.994Z,41.76
2019-04-23T06:25:45.971Z,41.92
2019-04-23T06:31:38.020Z,42.06
2019-04-23T06:35:47.110Z,42.35
2019-04-23T06:39:48.039Z,41.70
2019-04-23T06:46:05.483Z,41.21
2019-04-23T06:48:19.849Z,42.10
2019-04-23T06:50:14.820Z,42.13
2019-04-23T06:52:19.111Z,42.17
2019-04-23T06:54:24.415Z,41.98
2019-04-23T06:58:32.374Z,42.45
2019-04-23T07:00:33.946Z,42.11
2019-04-23T07:02:38.827Z,42.02
2019-04-23T07:04:51.473Z,41.91
2019-04-23T07:06:58.104Z,42.08
2019-04-23T07:09:07.795Z,42.04
2019-04-23T07:11:05.350Z,42.64
2019-04-23T07:13:04.920Z,42.77
2019-04-23T07:15:12.907Z,42.83
2019-04-23T07:17:21.193Z,42.87
2019-04-23T07:19:19.879Z,42.75
2019-04-23T07:21:20.241Z,41.79
2019-04-23T07:23:38.106Z,41.81
2019-04-23T07:25:29.505Z,42.12
2019-04-23T07:27:24.674Z,42.14
2019-04-23T07:29:31.455Z,41.93
2019-04-23T07:33:44.436Z,42.30
2019-04-23T07:35:45.446Z,42.46
2019-04-23T07:37:57.878Z,42.50
2019-04-23T07:40:19.968Z,42.13
2019-04-23T07:42:18.414Z,42.43
2019-04-23T07:44:42.375Z,42.17
2019-04-23T07:47:05.346Z,42.10
2019-04-23T07:48:56.332Z,41.75
2019-04-23T07:50:55.643Z,41.64
2019-04-23T07:53:18.883Z,40.97
2019-04-23T07:55:06.727Z,40.99
2019-04-23T07:57:15.285Z,40.96
2019-04-23T07:59:19.450Z,40.58
2019-04-23T08:01:26.863Z,40.96
2019-04-23T08:03:40.463Z,41.06
2019-04-23T08:05:26.404Z,41.04
2019-04-23T08:07:35.445Z,40.90
2019-04-23T08:09:43.053Z,41.15
2019-04-23T08:13:59.029Z,39.69
2019-04-23T08:15:46.656Z,39.64
2019-04-23T08:17:51.116Z,39.53
2019-04-23T08:22:07.027Z,39.14
2019-04-23T08:24:18.403Z,38.95
2019-04-23T08:26:42.838Z,38.52
2019-04-23T08:29:00.989Z,38.87
2019-04-23T08:30:50.237Z,37.65
2019-04-23T08:32:52.164Z,38.14
2019-04-23T08:34:58.406Z,38.11
2019-04-23T08:37:06.430Z,38.07
2019-04-23T08:39:05.335Z,37.50
2019-04-23T08:41:20.652Z,38.29
2019-04-23T08:47:40.516Z,38.53
2019-04-23T08:53:55.474Z,37.68
2019-04-23T08:55:58.146Z,37.77
2019-04-23T08:58:06.234Z,37.61
2019-04-23T09:00:12.550Z,37.73
2019-04-23T09:04:18.537Z,37.92
2019-04-23T09:06:17.219Z,38.82
2019-04-23T09:08:27.834Z,39.36
2019-04-23T09:12:35.032Z,39.71
2019-04-23T09:14:42.143Z,39.23
2019-04-23T09:16:44.771Z,39.30
2019-04-23T09:19:03.937Z,39.40
2019-04-23T09:20:41.061Z,39.48
2019-04-23T09:23:01.915Z,39.09
2019-04-23T09:27:09.827Z,39.64
2019-04-23T09:29:04.490Z,39.21
2019-04-23T09:33:33.965Z,38.13
2019-04-23T09:36:06.556Z,38.15
2019-04-23T09:41:13.053Z,37.67
2019-04-23T09:45:22.864Z,37.37
2019-04-23T09:47:45.833Z,37.62
2019-04-23T09:49:50.054Z,37.41
2019-04-23T09:51:56.307Z,37.70
2019-04-23T09:53:57.735Z,37.50
2019-04-23T09:55:53.727Z,37.17
2019-04-23T09:58:08.306Z,37.08
2019-04-23T10:00:10.179Z,36.24
2019-04-23T10:02:04.358Z,36.55
2019-04-23T10:04:00.193Z,35.79
2019-04-23T10:06:01.904Z,35.96
2019-04-23T10:08:05.126Z,36.08
2019-04-23T10:10:01.628Z,35.85
2019-04-23T10:12:05.132Z,35.69
2019-04-23T10:14:08.291Z,36.05
2019-04-23T10:16:15.249Z,36.27
2019-04-23T10:18:16.178Z,35.26
2019-04-23T10:20:18.372Z,35.01
2019-04-23T10:22:20.531Z,34.53
2019-04-23T10:24:23.313Z,34.19
2019-04-23T10:26:25.995Z,34.01
2019-04-23T10:28:56.257Z,34.25
2019-04-23T10:30:58.834Z,34.19
2019-04-23T10:33:01.518Z,33.81
2019-04-23T10:35:14.642Z,33.80
2019-04-23T10:37:09.458Z,33.46
2019-04-23T10:39:19.588Z,33.60
2019-04-23T10:41:16.210Z,33.50
2019-04-23T10:43:17.783Z,34.92
2019-04-23T10:45:48.447Z,35.87
2019-04-23T10:48:33.074Z,36.08
2019-04-23T10:51:05.623Z,35.51
2019-04-23T10:53:19.533Z,35.44
2019-04-23T10:55:14.539Z,35.54
2019-04-23T10:57:25.252Z,36.07
2019-04-23T11:01:46.734Z,37.00
2019-04-23T11:04:10.643Z,36.35
2019-04-23T11:06:02.158Z,35.72
2019-04-23T11:07:43.954Z,35.18
2019-04-23T11:12:14.601Z,36.75
2019-04-23T11:14:19.762Z,35.92
2019-04-23T11:18:33.812Z,35.75
2019-04-23T11:20:30.261Z,35.53
2019-04-23T11:22:42.614Z,36.86
2019-04-23T11:26:42.390Z,36.39
2019-04-23T11:28:38.448Z,36.65
2019-04-23T11:33:03.467Z,36.64
2019-04-23T11:35:14.288Z,36.78
2019-04-23T11:37:12.406Z,37.22
2019-04-23T11:39:23.205Z,37.11
2019-04-23T11:41:21.516Z,36.36
2019-04-23T11:43:20.347Z,36.22
2019-04-23T11:47:47.043Z,36.66
2019-04-23T11:49:46.262Z,35.97
2019-04-23T11:51:54.048Z,35.81
2019-04-23T11:53:41.304Z,35.38
2019-04-23T11:55:44.849Z,35.59
2019-04-23T12:02:05.316Z,35.84
2019-04-23T12:04:37.136Z,36.04
2019-04-23T12:06:46.003Z,35.85
2019-04-23T12:09:08.253Z,36.16
2019-04-23T12:11:50.254Z,35.52
2019-04-23T12:13:35.859Z,35.05
2019-04-23T12:15:39.493Z,35.14
2019-04-23T12:17:46.742Z,35.39
2019-04-23T12:19:55.734Z,35.82
2019-04-23T12:26:03.147Z,35.76
2019-04-23T12:28:06.573Z,35.63
2019-04-23T12:32:45.065Z,35.31
2019-04-23T12:34:36.077Z,35.29
2019-04-23T12:36:46.878Z,35.40
2019-04-23T12:38:56.794Z,35.16
2019-04-23T12:40:56.407Z,34.71
2019-04-23T12:43:12.938Z,34.87
2019-04-23T12:45:16.827Z,35.22
2019-04-23T12:47:20.532Z,34.57
2019-04-23T12:49:35.733Z,35.21
2019-04-23T12:51:33.410Z,35.59
2019-04-23T12:53:27.313Z,35.38
2019-04-23T12:55:34.211Z,34.95
2019-04-23T12:57:35.799Z,35.12
2019-04-23T12:59:36.778Z,35.23
2019-04-23T13:01:47.116Z,34.76
2019-04-23T13:05:49.144Z,34.30
2019-04-23T13:10:15.112Z,34.52
2019-04-23T13:11:58.268Z,34.21
2019-04-23T13:14:07.168Z,34.87
2019-04-23T13:16:25.457Z,34.56
2019-04-23T13:18:15.646Z,34.32
2019-04-23T13:20:20.406Z,34.09
2019-04-23T13:22:25.694Z,33.37
2019-04-23T13:24:40.777Z,33.72
2019-04-23T13:26:46.382Z,33.34
2019-04-23T13:28:45.419Z,34.15
2019-04-23T13:33:01.134Z,34.82
2019-04-23T13:35:23.066Z,34.71
2019-04-23T13:37:12.465Z,34.69
2019-04-23T13:39:14.265Z,34.54
2019-04-23T13:41:23.434Z,34.38
2019-04-23T13:43:29.908Z,34.25
2019-04-23T13:45:49.908Z,33.27
2019-04-23T13:47:39.319Z,34.26
2019-04-23T13:49:39.670Z,33.66
2019-04-23T13:51:32.596Z,33.67
2019-04-23T13:55:42.653Z,34.49
2019-04-23T13:58:55.017Z,34.84
2019-04-23T13:59:51.474Z,35.01
2019-04-23T14:01:46.910Z,34.90
2019-04-23T14:04:24.848Z,35.34
2019-04-23T14:08:20.480Z,35.03
2019-04-23T14:10:26.970Z,35.07
2019-04-23T14:12:30.628Z,34.68
2019-04-23T14:14:39.765Z,34.46
2019-04-23T14:20:35.288Z,34.76
2019-04-23T14:24:59.259Z,33.97
2019-04-23T14:26:50.896Z,34.05
2019-04-23T14:30:59.252Z,34.45
2019-04-23T14:33:00.859Z,34.51
2019-04-23T14:35:18.483Z,34.94
2019-04-23T14:37:16.506Z,34.41
2019-04-23T14:39:12.148Z,34.10
2019-04-23T14:43:40.286Z,34.11
2019-04-23T14:45:59.679Z,34.29
2019-04-23T14:47:46.385Z,34.67
2019-04-23T14:50:09.288Z,34.56
2019-04-23T14:51:52.457Z,35.12
2019-04-23T14:53:59.665Z,34.47
2019-04-23T14:56:07.784Z,34.59
2019-04-23T14:58:17.497Z,34.64
2019-04-23T15:02:23.140Z,34.17
2019-04-23T15:04:20.432Z,34.30
2019-04-23T15:06:29.542Z,33.83
2019-04-23T15:08:30.174Z,33.75
2019-04-23T15:10:32.579Z,33.43
2019-04-23T15:14:46.451Z,33.73
2019-04-23T15:16:49.853Z,33.44
2019-04-23T15:19:14.551Z,33.96
2019-04-23T15:21:34.100Z,33.82
2019-04-23T15:23:38.545Z,33.56
2019-04-23T15:25:30.149Z,33.35
2019-04-23T15:29:08.520Z,34.22
2019-04-23T15:31:34.897Z,34.50
2019-04-23T15:33:34.850Z,34.89
2019-04-23T15:35:55.404Z,34.99
2019-04-23T15:38:12.079Z,35.02
2019-04-23T15:39:49.582Z,34.63
2019-04-23T15:41:55.959Z,34.50
2019-04-23T15:46:02.119Z,35.24
2019-04-23T15:48:03.268Z,35.14
2019-04-23T15:50:19.945Z,35.01
2019-04-23T15:56:26.830Z,35.21
2019-04-23T15:58:26.310Z,35.17
2019-04-23T16:00:17.806Z,35.29
2019-04-23T16:02:01.394Z,35.46
2019-04-23T16:04:03.553Z,35.49
2019-04-23T16:06:07.925Z,35.84
2019-04-23T16:08:45.809Z,35.89
2019-04-23T16:10:52.325Z,35.98
2019-04-23T16:12:53.441Z,36.16
2019-04-23T16:14:58.508Z,36.15
2019-04-23T16:16:59.736Z,36.06
2019-04-23T16:19:25.212Z,35.92
2019-04-23T16:21:34.185Z,35.43
2019-04-23T16:23:28.281Z,35.75
2019-04-23T16:25:31.688Z,35.89
2019-04-23T16:27:34.891Z,35.55
2019-04-23T16:29:53.781Z,35.50
2019-04-23T16:36:19.231Z,35.67
2019-04-23T16:40:28.953Z,35.87
2019-04-23T16:42:29.630Z,35.86
2019-04-23T16:44:38.449Z,35.72
2019-04-23T16:46:31.408Z,35.69
2019-04-23T16:48:55.476Z,36.22
2019-04-23T16:51:00.696Z,36.19
2019-04-23T16:52:56.029Z,36.37
2019-04-23T16:57:22.820Z,36.03
2019-04-23T16:59:08.760Z,36.20
2019-04-23T17:01:07.263Z,36.30
2019-04-23T17:03:18.834Z,36.56
2019-04-23T17:05:19.648Z,36.84
2019-04-23T17:07:29.937Z,37.08
2019-04-23T17:09:18.547Z,37.15
2019-04-23T17:13:38.063Z,37.69
2019-04-23T17:15:36.711Z,38.08
2019-04-23T17:17:35.815Z,38.15
2019-04-23T17:19:41.078Z,38.30
2019-04-23T17:21:44.394Z,38.19
2019-04-23T17:23:59.160Z,38.17
2019-04-23T17:25:59.311Z,38.45
2019-04-23T17:28:09.057Z,39.06
2019-04-23T17:29:58.860Z,38.94
2019-04-23T17:32:14.864Z,39.08
2019-04-23T17:34:30.159Z,39.26
2019-04-23T17:37:05.294Z,39.71
2019-04-23T17:41:21.482Z,39.26
2019-04-23T17:43:25.893Z,39.35
2019-04-23T17:47:52.313Z,39.52
2019-04-23T17:52:05.501Z,39.70
2019-04-23T17:54:17.490Z,39.88
2019-04-23T17:56:27.255Z,40.05
2019-04-23T17:58:15.691Z,40.35
2019-04-23T18:00:28.404Z,40.23
2019-04-23T18:04:27.437Z,40.45
2019-04-23T18:08:32.691Z,40.75
2019-04-23T18:10:41.565Z,40.94
2019-04-23T18:12:43.591Z,41.18
2019-04-23T18:14:45.087Z,41.16
2019-04-23T18:17:01.514Z,41.35
2019-04-23T18:21:29.538Z,41.73
2019-04-23T18:23:09.931Z,41.77
2019-04-23T18:25:45.754Z,41.97
2019-04-23T18:27:48.293Z,42.32
2019-04-23T18:32:22.153Z,42.23
2019-04-23T18:34:26.552Z,42.44
2019-04-23T18:36:13.518Z,42.59
2019-04-23T18:38:29.012Z,42.58
2019-04-23T18:40:28.420Z,42.71
2019-04-23T18:42:45.113Z,42.96
2019-04-23T18:44:42.166Z,43.11
2019-04-23T18:46:41.848Z,43.00
2019-04-23T18:50:53.708Z,43.31
2019-04-23T18:52:55.880Z,43.69
2019-04-23T18:54:57.345Z,43.49
2019-04-23T18:57:10.003Z,43.52
2019-04-23T19:03:33.027Z,43.76
2019-04-23T19:05:40.569Z,43.93
2019-04-23T19:08:21.285Z,43.90
2019-04-23T19:10:30.613Z,44.12
2019-04-23T19:12:59.593Z,44.18
2019-04-23T19:15:09.435Z,44.31
2019-04-23T19:17:38.674Z,44.33
2019-04-23T19:19:09.695Z,44.59
2019-04-23T19:21:15.657Z,44.43
2019-04-23T19:23:25.496Z,44.61
2019-04-23T19:25:22.861Z,44.68
2019-04-23T19:29:41.711Z,44.91
2019-04-23T19:31:55.382Z,45.16
2019-04-23T19:36:17.810Z,45.25
2019-04-23T19:38:17.943Z,45.75
2019-04-23T19:40:26.326Z,45.60
2019-04-23T19:42:17.944Z,45.83
2019-04-23T19:44:32.882Z,45.65
2019-04-23T19:48:42.766Z,45.79
2019-04-23T19:50:51.974Z,45.90
2019-04-23T19:53:15.668Z,46.11
2019-04-23T19:54:59.929Z,46.19
2019-04-23T19:58:59.693Z,46.30
2019-04-23T20:05:08.812Z,46.33
2019-04-23T20:09:33.482Z,46.61
2019-04-23T20:13:33.099Z,46.82
2019-04-23T20:15:29.197Z,46.81
2019-04-23T20:17:37.792Z,46.94
2019-04-23T20:21:47.387Z,47.12
2019-04-23T20:26:10.309Z,47.32
2019-04-23T20:32:26.782Z,47.52
2019-04-23T20:34:56.297Z,47.77
2019-04-23T20:39:02.614Z,47.96
2019-04-23T20:41:06.324Z,47.88
2019-04-23T20:42:58.683Z,48.07
2019-04-23T20:45:10.339Z,48.17
2019-04-23T20:47:13.286Z,48.20
2019-04-23T20:49:17.629Z,48.38
2019-04-23T20:51:31.175Z,48.22
2019-04-23T20:53:22.768Z,48.43
2019-04-23T20:55:45.211Z,48.42
2019-04-23T21:00:23.481Z,48.56
2019-04-23T21:02:42.106Z,48.64
2019-04-23T21:04:39.679Z,48.70
2019-04-23T21:06:39.786Z,48.61
2019-04-23T21:09:05.722Z,48.85
2019-04-23T21:10:42.958Z,48.83
2019-04-23T21:15:16.033Z,48.90
2019-04-23T21:16:54.694Z,48.73
2019-04-23T21:18:55.013Z,48.83
2019-04-23T21:21:02.098Z,48.85
2019-04-23T21:23:11.161Z,48.95
2019-04-23T21:25:08.202Z,48.97
2019-04-23T21:27:39.853Z,49.07
2019-04-23T21:29:46.843Z,49.40
2019-04-23T21:31:41.321Z,49.27
2019-04-23T21:33:44.227Z,49.61
2019-04-23T21:36:13.443Z,49.50
2019-04-23T21:38:41.820Z,49.56
2019-04-23T21:42:57.654Z,49.91
2019-04-23T21:44:53.917Z,50.01
2019-04-23T21:46:55.358Z,50.24
2019-04-23T21:53:06.243Z,50.69
2019-04-23T21:56:37.262Z,50.88
2019-04-23T22:00:57.038Z,51.01
2019-04-23T22:02:54.784Z,51.28
2019-04-23T22:04:52.169Z,51.35
2019-04-23T22:06:52.879Z,51.37
2019-04-23T22:09:10.979Z,51.46
2019-04-23T22:11:26.803Z,51.56
2019-04-23T22:13:24.570Z,51.52
2019-04-23T22:15:12.710Z,51.74
2019-04-23T22:17:20.603Z,51.95
2019-04-23T22:21:33.467Z,52.18
2019-04-23T22:23:40.830Z,52.16
2019-04-23T22:25:47.005Z,52.36
2019-04-23T22:27:41.307Z,52.38
2019-04-23T22:29:42.034Z,52.39
2019-04-23T22:31:47.467Z,52.42
2019-04-23T22:34:09.025Z,52.59
2019-04-23T22:38:07.015Z,52.91
2019-04-23T22:40:04.639Z,53.03
2019-04-23T22:44:32.866Z,52.96
2019-04-23T22:48:29.611Z,53.30
2019-04-23T22:50:31.683Z,53.28
2019-04-23T22:54:38.537Z,53.63
2019-04-23T22:56:50.400Z,53.64
2019-04-23T22:59:03.460Z,53.97
2019-04-23T23:01:14.349Z,53.83
2019-04-23T23:03:21.421Z,53.94
2019-04-23T23:05:37.464Z,54.16
2019-04-23T23:07:44.749Z,54.40
2019-04-23T23:09:44.858Z,54.41
2019-04-23T23:11:49.754Z,54.56
2019-04-23T23:14:02.341Z,54.89
2019-04-23T23:15:54.552Z,55.08
2019-04-23T23:18:07.438Z,55.12
2019-04-23T23:20:05.778Z,55.04
2019-04-23T23:26:09.717Z,55.48
2019-04-23T23:28:24.641Z,55.83
2019-04-23T23:30:22.958Z,55.58
2019-04-23T23:32:23.057Z,55.71
2019-04-23T23:34:27.643Z,55.78
2019-04-23T23:36:28.451Z,55.93
2019-04-23T23:40:52.763Z,56.35
2019-04-23T23:42:42.640Z,56.34
2019-04-23T23:46:56.577Z,56.68
2019-04-23T23:51:00.534Z,57.18
2019-04-23T23:55:09.040Z,57.22
2019-04-23T23:57:12.534Z,57.26
